x

Geneva On The Lake, Oh (gelo1) Weather Station

10:20pm - Fri 1st Aug 2014 All times are CDT. -5 hours from GMT.

  • Wind
    3mph, 5mph gusts
  • Air Temp 69°f
  • Sea Pressure 1020mb
  • Geneva On The Lake, Oh
  • Geneva On The Lake, Oh

More Historic Weather Station data

Upgrade to MSW Pro to gain access to the past 30 days of data for over 8000 Wavebouys and Weather Stations around the globe.

Join Pro

Comparision Forecast

View Surf forecast
   
Fri 08/01 10:20pm 3 5 mph 1020mb 69f
10:10pm 3 5 mph 1020mb 70f
9:20pm 5 6 mph 1020.3mb 71f
9:10pm 2 3 mph 1020.3mb 71f
8:20pm 6 8 mph 1020mb 74f
8:10pm 8 9 mph 1019.6mb 74f
7:20pm 6 7 mph 1019.6mb 74f
7:10pm 7 8 mph 1019.6mb 74f
6:20pm 7 9 mph 1019.6mb 74f
6:10pm 7
mph
1019.3mb 75f
5:20pm 5 6 mph 1019mb 75f
5:10pm 2 5 mph 1019mb 75f
4:20pm 1 3 mph 1019.3mb 74f
4:10pm 2 3 mph 1019.6mb 74f
3:20pm 2 3 mph 1019.6mb 74f
3:10pm 2 3 mph 1019.6mb 74f
2:20pm 3 5 mph 1020.3mb 73f
2:10pm 3 6 mph 1020.3mb 73f
1:20pm 5 6 mph 1020.7mb 73f
1:10pm 5 6 mph 1020.7mb 73f
12:20pm 7 8 mph 1020.7mb 73f
12:10pm 6 7 mph 1020.7mb 73f
11:20am 7 8 mph 1020.7mb 73f
11:10am 7 8 mph 1020.7mb 73f
10:20am 5
mph
1020.7mb 73f
10:10am 3 5 mph 1020.7mb 73f
9:20am 3 5 mph 1020.7mb 73f
9:10am 5
mph
1020.7mb 73f
8:20am 3 7 mph 1020.7mb 71f
8:10am 5 8 mph 1020.7mb 70f
7:20am 7 9 mph 1020.7mb 66f
7:10am 7 8 mph 1020.7mb 65f
6:20am 8 9 mph 1020.3mb 64f
6:10am 7 10 mph 1020mb 64f
5:20am 7 9 mph 1019.6mb 64f
5:10am 6 10 mph 1019.6mb 63f
4:20am 8 13 mph 1019.3mb 63f
4:10am 7 10 mph 1019.3mb 63f
3:20am 7 10 mph 1019mb 63f
3:10am 7 10 mph 1018.6mb 64f
2:20am 7 9 mph 1018.6mb 65f
2:10am 7 9 mph 1018.6mb 65f
1:20am 7 9 mph 1018.6mb 66f
1:10am 6 8 mph 1018.6mb 66f
12:20am 6 8 mph 1019mb 67f
12:10am 6 8 mph 1019mb 67f
Thu 07/31 11:20pm 6 11 mph 1018.6mb 67f
11:10pm 7 10 mph 1018.6mb 67f
10:20pm 6 9 mph 1018.6mb 66f
10:10pm 5 8 mph 1018.6mb 66f
9:20pm 6 8 mph 1019mb 67f
9:10pm 5 8 mph 1019mb 67f
8:20pm 6 8 mph 1018.6mb 68f
8:10pm 5 7 mph 1018.6mb 68f
7:20pm 3 5 mph 1018.3mb 71f
7:10pm 3 6 mph 1018.3mb 71f
7:00pm 3 5 mph 1018.3mb 72f
5:20pm 5 8 mph 1018.6mb 74f
5:10pm 7 9 mph 1018.6mb 73f
4:20pm 8 10 mph 1018.6mb 72f
4:10pm 10 11 mph 1018.6mb 71f
3:20pm 10 13 mph 1019mb 70f
3:10pm 11 13 mph 1019mb 70f
2:20pm 14 16 mph 1019mb 69f
2:10pm 14 17 mph 1019mb 69f
1:20pm 16 21 mph 1018.6mb 68f
1:10pm 17 21 mph 1018.6mb 68f
12:20pm 17 23 mph 1018.6mb 68f
12:10pm 21 24 mph 1018.3mb 68f
11:20am 18 22 mph 1017.9mb 69f
11:10am 17 22 mph 1018.3mb 68f
10:20am 17 22 mph 1017.9mb 68f
10:10am 17 21 mph 1017.9mb 68f
9:20am 13 21 mph 1017.6mb 67f
9:10am 11 18 mph 1017.6mb 68f
8:20am 7 11 mph 1017.6mb 66f
8:10am 6 9 mph 1017.6mb 65f
7:20am 6 8 mph 1017.3mb 62f
7:10am 6 9 mph 1017.3mb 62f
6:20am 3 6 mph 1017.3mb 62f
6:10am 2 3 mph 1017.3mb 62f
5:20am 6 10 mph 1016.3mb 61f
5:10am 6 10 mph 1016.3mb 62f
4:20am 8 10 mph 1015.9mb 62f
4:10am 7 10 mph 1015.9mb 62f
3:20am 5 9 mph 1015.9mb 61f
3:10am 6 9 mph 1015.6mb 61f
2:20am 5 10 mph 1015.6mb 60f
2:10am 6 8 mph 1015.6mb 60f
1:20am 3 7 mph 1015.9mb 60f
1:10am 5 8 mph 1015.9mb 60f
12:20am 6 7 mph 1016.3mb 61f
12:10am 3 5 mph 1016.3mb 61f
Wed 07/30 11:20pm 7 17 mph 1016.3mb 64f
11:10pm 15 17 mph 1016.3mb 65f
10:20pm 5 7 mph 1016.3mb 63f
10:10pm 5 7 mph 1016.3mb 64f
9:20pm 3 6 mph 1016.9mb 65f
9:10pm 2 5 mph 1016.6mb 65f
8:20pm 5
mph
1016.3mb 65f
8:10pm 3 5 mph 1016.3mb 65f
7:20pm 1 2 mph 1015.9mb 68f
7:10pm  -  2 mph 1015.9mb 69f
6:20pm 6 9 mph 1016.3mb 69f
6:10pm 8 9 mph 1016.3mb 69f
5:20pm 9 11 mph 1015.9mb 69f
5:10pm 9 11 mph 1015.9mb 69f
4:20pm 13 15 mph 1015.9mb 69f
4:10pm 13 15 mph 1015.9mb 69f
3:20pm 16 18 mph 1015.9mb 68f
3:10pm 17 20 mph 1015.9mb 68f
2:20pm 15 21 mph 1015.9mb 68f
2:10pm 17 22 mph 1015.9mb 68f
1:20pm 22 24 mph 1015.9mb 67f
1:10pm 21 24 mph 1015.9mb 67f
12:20pm 11 21 mph 1016.6mb 67f
12:10pm 14 17 mph 1016.6mb 67f
11:20am 11 17 mph 1016.3mb 68f
11:10am 14 16 mph 1016.3mb 68f
10:20am 10 14 mph 1016.6mb 67f
10:10am 13 16 mph 1016.6mb 67f
9:20am 9 14 mph 1016.6mb 66f
9:10am 8 11 mph 1016.6mb 65f
8:20am 7 9 mph 1016.6mb 63f
8:10am 7 11 mph 1016.6mb 62f
7:20am 6 9 mph 1016.3mb 59f
7:10am 7 9 mph 1016.3mb 59f
6:20am 5 9 mph 1015.9mb 60f
6:10am 6 10 mph 1015.6mb 59f
5:20am 5 10 mph 1015.6mb 60f
5:10am 6 11 mph 1015.6mb 61f
4:20am 7 10 mph 1014.9mb 61f
4:10am 6 9 mph 1015.2mb 61f
3:20am 5 8 mph 1015.2mb 60f
3:10am 6 9 mph 1015.2mb 60f
2:20am 5 8 mph 1014.9mb 61f
2:10am 6 9 mph 1014.9mb 61f
1:20am 6 9 mph 1015.6mb 61f
1:10am 7 9 mph 1015.6mb 62f
12:20am 7 11 mph 1015.6mb 62f
12:10am 7 9 mph 1015.6mb 62f
Tue 07/29 11:20pm 5 8 mph 1015.6mb 63f
11:10pm 5 9 mph 1015.9mb 63f
10:20pm 5 9 mph 1015.9mb 63f
10:10pm 6 9 mph 1015.9mb 63f
9:20pm 5 10 mph 1016.3mb 62f
9:10pm 6 8 mph 1016.3mb 62f
8:20pm 6 8 mph 1015.9mb 62f
8:10pm 6 8 mph 1015.9mb 63f
7:20pm 5 6 mph 1015.9mb 64f
7:10pm 3 6 mph 1015.9mb 64f
6:20pm 6 7 mph 1016.3mb 66f
6:10pm 7 10 mph 1016.3mb 66f
5:20pm 10 18 mph 1016.3mb 66f
5:10pm 17 20 mph 1016.3mb 66f
4:20pm 16 21 mph 1016.3mb 65f
4:10pm 16 22 mph 1016.3mb 65f
3:20pm 15 20 mph 1015.9mb 65f
3:10pm 16 20 mph 1016.3mb 65f
2:20pm 16 18 mph 1016.3mb 65f
2:10pm 13 17 mph 1016.3mb 65f
1:20pm 16 18 mph 1016.3mb 64f
1:10pm 14 18 mph 1016.3mb 64f
12:20pm 10 16 mph 1016.6mb 64f
12:10pm 10 16 mph 1016.6mb 64f
11:20am 10 16 mph 1016.6mb 64f
11:10am 10 15 mph 1016.6mb 64f
10:20am 14 20 mph 1016.6mb 63f
10:10am 15 17 mph 1016.3mb 63f
9:20am 11 16 mph 1016.3mb 63f
9:10am 11 16 mph 1016.3mb 63f
8:20am 9 14 mph 1015.6mb 63f
8:10am 11 14 mph 1015.6mb 63f
7:20am 11 15 mph 1015.6mb 63f
7:10am 11 17 mph 1015.2mb 63f
6:20am 14 17 mph 1014.9mb 63f
6:10am 14 17 mph 1014.9mb 63f
5:20am 17 22 mph 1014.6mb 62f